createdAt,value
2017-02-19T00:00:23.836Z,99.99
2017-02-19T00:01:05.807Z,99.99
2017-02-19T00:01:48.214Z,99.99
2017-02-19T00:02:30.517Z,99.99
2017-02-19T00:03:11.735Z,99.99
2017-02-19T00:03:53.141Z,99.99
2017-02-19T00:04:34.131Z,99.99
2017-02-19T00:05:17.252Z,99.99
2017-02-19T00:05:58.409Z,99.99
2017-02-19T00:06:39.748Z,99.99
2017-02-19T00:07:21.916Z,99.99
2017-02-19T00:08:03.915Z,99.99
2017-02-19T00:08:45.339Z,99.99
2017-02-19T00:09:26.502Z,99.99
2017-02-19T00:10:06.994Z,99.99
2017-02-19T00:10:47.437Z,99.99
2017-02-19T00:11:29.748Z,99.99
2017-02-19T00:12:10.862Z,99.99
2017-02-19T00:12:58.634Z,99.99
2017-02-19T00:13:39.144Z,99.99
2017-02-19T00:14:20.230Z,99.99
2017-02-19T00:15:00.754Z,99.99
2017-02-19T00:15:42.746Z,99.99
2017-02-19T00:16:23.730Z,99.99
2017-02-19T00:17:04.274Z,99.99
2017-02-19T00:17:47.330Z,99.99
2017-02-19T00:18:31.402Z,99.99
2017-02-19T00:19:13.716Z,99.99
2017-02-19T00:19:54.816Z,99.99
2017-02-19T00:20:35.809Z,99.99
2017-02-19T00:21:16.315Z,99.99
2017-02-19T00:21:56.805Z,99.99
2017-02-19T00:22:38.237Z,99.99
2017-02-19T00:23:20.121Z,99.99
2017-02-19T00:24:00.661Z,99.99
2017-02-19T00:24:41.198Z,99.99
2017-02-19T00:25:21.681Z,99.99
2017-02-19T00:26:02.973Z,99.99
2017-02-19T00:26:44.226Z,99.99
2017-02-19T00:27:24.726Z,99.99
2017-02-19T00:28:05.994Z,99.99
2017-02-19T00:28:47.152Z,99.99
2017-02-19T00:29:28.621Z,99.99
2017-02-19T00:30:09.126Z,99.99
2017-02-19T00:30:49.610Z,99.99
2017-02-19T00:31:30.743Z,99.99
2017-02-19T00:32:12.156Z,99.99
2017-02-19T00:32:53.641Z,99.99
2017-02-19T00:33:34.759Z,99.99
2017-02-19T00:34:15.838Z,99.99
2017-02-19T00:34:56.341Z,99.99
2017-02-19T00:35:37.750Z,99.99
2017-02-19T00:36:21.144Z,99.99
2017-02-19T00:37:02.240Z,99.99
2017-02-19T00:37:44.152Z,99.99
2017-02-19T00:38:26.403Z,99.99
2017-02-19T00:39:09.126Z,99.99
2017-02-19T00:39:51.146Z,99.99
2017-02-19T00:40:35.216Z,99.99
2017-02-19T00:41:16.212Z,99.99
2017-02-19T00:41:56.690Z,99.99
2017-02-19T00:42:37.997Z,99.99
2017-02-19T00:43:19.124Z,99.99
2017-02-19T00:43:59.636Z,99.99
2017-02-19T00:44:40.134Z,99.99
2017-02-19T00:45:20.602Z,99.99
2017-02-19T00:46:01.086Z,99.99
2017-02-19T00:46:41.565Z,99.99
2017-02-19T00:47:23.627Z,99.99
2017-02-19T00:48:04.848Z,99.99
2017-02-19T00:48:49.731Z,99.99
2017-02-19T00:49:31.723Z,99.99
2017-02-19T00:50:12.745Z,99.99
2017-02-19T00:50:57.729Z,99.99
2017-02-19T00:51:39.900Z,99.99
2017-02-19T00:52:20.399Z,99.99
2017-02-19T00:53:04.317Z,99.99
2017-02-19T00:53:45.624Z,99.99
2017-02-19T00:54:26.145Z,99.99
2017-02-19T00:55:08.134Z,99.99
2017-02-19T00:55:53.147Z,99.99
2017-02-19T00:56:36.487Z,99.99
2017-02-19T00:57:17.724Z,99.99
2017-02-19T00:58:00.897Z,99.99
2017-02-19T00:58:42.821Z,99.99
2017-02-19T00:59:25.746Z,99.99
2017-02-19T01:00:06.214Z,99.99
2017-02-19T01:00:49.222Z,99.99
2017-02-19T01:01:29.718Z,99.99
2017-02-19T01:02:12.001Z,99.99
2017-02-19T01:02:52.489Z,99.99
2017-02-19T01:03:33.826Z,99.99
2017-02-19T01:04:14.327Z,99.99
2017-02-19T01:04:54.809Z,99.99
2017-02-19T01:05:35.465Z,99.99
2017-02-19T01:06:17.246Z,99.99
2017-02-19T01:06:59.308Z,99.99
2017-02-19T01:07:39.837Z,99.99
2017-02-19T01:08:20.910Z,99.99
2017-02-19T01:09:02.902Z,99.99
2017-02-19T01:09:56.649Z,99.99
2017-02-19T01:10:37.967Z,99.99
2017-02-19T01:11:20.652Z,99.99
2017-02-19T01:12:01.143Z,99.99
2017-02-19T01:12:41.622Z,99.99
2017-02-19T01:13:26.622Z,99.99
2017-02-19T01:14:11.915Z,99.99
2017-02-19T01:14:55.763Z,99.99
2017-02-19T01:15:36.943Z,99.99
2017-02-19T01:16:18.725Z,99.99
2017-02-19T01:16:59.222Z,99.99
2017-02-19T01:17:40.432Z,99.99
2017-02-19T01:18:25.720Z,99.99
2017-02-19T01:19:07.008Z,99.99
2017-02-19T01:19:50.240Z,99.99
2017-02-19T01:20:31.328Z,99.99
2017-02-19T01:21:12.632Z,99.99
2017-02-19T01:21:53.134Z,99.99
2017-02-19T01:22:34.312Z,99.99
2017-02-19T01:23:15.722Z,99.99
2017-02-19T01:23:56.195Z,99.99
2017-02-19T01:24:36.697Z,99.99
2017-02-19T01:25:18.976Z,99.99
2017-02-19T01:25:59.459Z,99.99
2017-02-19T01:26:39.906Z,99.99
2017-02-19T01:27:20.423Z,99.99
2017-02-19T01:28:00.889Z,99.99
2017-02-19T01:28:43.132Z,99.99
2017-02-19T01:29:23.611Z,99.99
2017-02-19T01:30:04.108Z,99.99
2017-02-19T01:30:44.633Z,99.99
2017-02-19T01:31:25.067Z,99.99
2017-02-19T01:32:05.573Z,99.99
2017-02-19T01:32:46.995Z,99.99
2017-02-19T01:33:27.520Z,99.99
2017-02-19T01:34:08.020Z,99.99
2017-02-19T01:34:49.344Z,99.99
2017-02-19T01:35:30.392Z,99.99
2017-02-19T01:36:10.929Z,99.99
2017-02-19T01:36:52.138Z,99.99
2017-02-19T01:37:32.647Z,99.99
2017-02-19T01:38:13.089Z,99.99
2017-02-19T01:38:53.573Z,99.99
2017-02-19T01:39:34.896Z,99.99
2017-02-19T01:40:15.435Z,99.99
2017-02-19T01:40:56.636Z,99.99
2017-02-19T01:41:37.821Z,99.99
2017-02-19T01:42:18.905Z,99.99
2017-02-19T01:42:59.378Z,99.99
2017-02-19T01:43:40.497Z,99.99
2017-02-19T01:44:21.744Z,99.99
2017-02-19T01:45:04.008Z,99.99
2017-02-19T01:45:44.988Z,99.99
2017-02-19T01:46:27.235Z,99.99
2017-02-19T01:47:08.486Z,99.99
2017-02-19T01:47:50.398Z,99.99
2017-02-19T01:48:30.864Z,99.99
2017-02-19T01:49:12.000Z,99.99
2017-02-19T01:49:52.509Z,99.99
2017-02-19T01:50:32.987Z,99.99
2017-02-19T01:51:14.335Z,99.99
2017-02-19T01:51:55.720Z,99.99
2017-02-19T01:52:37.806Z,99.99
2017-02-19T01:53:18.293Z,99.99
2017-02-19T01:54:00.135Z,99.99
2017-02-19T01:54:40.613Z,99.99
2017-02-19T01:55:21.640Z,99.99
2017-02-19T01:56:02.148Z,99.99
2017-02-19T01:56:43.241Z,99.99
2017-02-19T01:57:23.739Z,99.99
2017-02-19T01:58:13.651Z,99.99
2017-02-19T01:58:54.128Z,99.99
2017-02-19T01:59:34.625Z,99.99
2017-02-19T02:00:17.625Z,99.99
2017-02-19T02:00:58.129Z,99.99
2017-02-19T02:01:38.652Z,99.99
2017-02-19T02:02:20.003Z,99.99
2017-02-19T02:03:00.500Z,99.99
2017-02-19T02:03:41.030Z,99.99
2017-02-19T02:04:22.015Z,99.99
2017-02-19T02:05:05.246Z,99.99
2017-02-19T02:05:46.401Z,99.99
2017-02-19T02:06:29.794Z,99.99
2017-02-19T02:07:10.295Z,99.99
2017-02-19T02:07:50.800Z,99.99
2017-02-19T02:08:31.906Z,99.99
2017-02-19T02:09:12.910Z,99.99
2017-02-19T02:09:56.237Z,99.99
2017-02-19T02:10:37.636Z,99.99
2017-02-19T02:11:18.118Z,99.99
2017-02-19T02:11:59.136Z,99.99
2017-02-19T02:12:39.647Z,99.99
2017-02-19T02:13:21.630Z,99.99
2017-02-19T02:14:02.816Z,99.99
2017-02-19T02:14:45.241Z,99.99
2017-02-19T02:15:28.225Z,99.99
2017-02-19T02:16:09.646Z,99.99
2017-02-19T02:16:50.130Z,99.99
2017-02-19T02:17:32.334Z,99.99
2017-02-19T02:18:14.329Z,99.99
2017-02-19T02:18:56.136Z,99.99
2017-02-19T02:19:38.231Z,99.99
2017-02-19T02:20:21.661Z,99.99
2017-02-19T02:21:04.755Z,99.99
2017-02-19T02:21:55.629Z,99.99
2017-02-19T02:22:36.731Z,99.99
2017-02-19T02:23:18.742Z,99.99
2017-02-19T02:24:00.647Z,99.99
2017-02-19T02:24:47.734Z,99.99
2017-02-19T02:25:28.211Z,99.99
2017-02-19T02:26:08.709Z,99.99
2017-02-19T02:26:50.009Z,99.99
2017-02-19T02:27:32.308Z,99.99
2017-02-19T02:28:15.417Z,99.99
2017-02-19T02:28:56.423Z,99.99
2017-02-19T02:29:38.324Z,99.99
2017-02-19T02:30:20.223Z,99.99
2017-02-19T02:31:00.711Z,99.99
2017-02-19T02:31:43.749Z,99.99
2017-02-19T02:32:27.637Z,99.99
2017-02-19T02:33:08.716Z,99.99
2017-02-19T02:33:50.799Z,99.99
2017-02-19T02:34:31.931Z,99.99
2017-02-19T02:35:12.981Z,99.99
2017-02-19T02:35:54.634Z,99.99
2017-02-19T02:36:36.820Z,99.99
2017-02-19T02:37:17.314Z,99.99
2017-02-19T02:37:58.332Z,99.99
2017-02-19T02:38:38.794Z,99.99
2017-02-19T02:39:19.261Z,99.99
2017-02-19T02:40:02.302Z,99.99
2017-02-19T02:40:43.755Z,99.99
2017-02-19T02:41:24.804Z,99.99
2017-02-19T02:42:07.247Z,99.99
2017-02-19T02:42:48.228Z,99.99
2017-02-19T02:43:29.410Z,99.99
2017-02-19T02:45:43.761Z,99.99
2017-02-19T02:46:25.260Z,99.99
2017-02-19T02:47:08.260Z,99.99
2017-02-19T02:47:51.416Z,99.99
2017-02-19T02:48:35.274Z,99.99
2017-02-19T02:49:16.364Z,99.99
2017-02-19T02:49:56.879Z,99.99
2017-02-19T02:50:38.854Z,99.99
2017-02-19T02:51:23.864Z,99.99
2017-02-19T02:52:04.349Z,99.99
2017-02-19T02:52:44.863Z,99.99
2017-02-19T02:53:26.067Z,99.99
2017-02-19T02:55:39.711Z,99.99
2017-02-19T02:56:21.852Z,99.99
2017-02-19T02:57:02.130Z,99.99
2017-02-19T02:57:44.121Z,99.99
2017-02-19T02:58:25.953Z,99.99
2017-02-19T02:59:06.483Z,99.99
2017-02-19T02:59:47.643Z,99.99
2017-02-19T03:00:28.123Z,99.99
2017-02-19T03:01:08.579Z,99.99
2017-02-19T03:01:49.730Z,99.99
2017-02-19T03:02:30.744Z,99.99
2017-02-19T03:03:11.220Z,99.99
2017-02-19T03:04:01.053Z,99.99
2017-02-19T03:04:43.964Z,99.99
2017-02-19T03:05:24.956Z,99.99
2017-02-19T03:06:07.230Z,99.99
2017-02-19T03:06:48.222Z,99.99
2017-02-19T03:07:30.942Z,99.99
2017-02-19T03:08:13.041Z,99.99
2017-02-19T03:08:54.040Z,99.99
2017-02-19T03:09:35.069Z,99.99
2017-02-19T03:10:17.955Z,99.99
2017-02-19T03:10:58.948Z,99.99
2017-02-19T03:11:40.211Z,99.99
2017-02-19T03:12:21.956Z,99.99
2017-02-19T03:13:05.054Z,99.99
2017-02-19T03:13:50.130Z,99.99
2017-02-19T03:14:32.059Z,99.99
2017-02-19T03:15:14.242Z,99.99
2017-02-19T03:15:55.552Z,99.99
2017-02-19T03:16:36.019Z,99.99
2017-02-19T03:17:16.506Z,99.99
2017-02-19T03:17:58.529Z,99.99
2017-02-19T03:18:39.593Z,99.99
2017-02-19T03:19:20.080Z,99.99
2017-02-19T03:20:01.563Z,99.99
2017-02-19T03:20:42.961Z,99.99
2017-02-19T03:21:26.138Z,99.99
2017-02-19T03:22:06.601Z,99.99
2017-02-19T03:22:48.468Z,99.99
2017-02-19T03:24:37.002Z,99.99
2017-02-19T03:25:19.279Z,99.99
2017-02-19T03:26:00.239Z,99.99
2017-02-19T03:26:45.187Z,99.99
2017-02-19T03:27:26.466Z,99.99
2017-02-19T03:28:08.452Z,99.99
2017-02-19T03:28:49.876Z,99.99
2017-02-19T03:30:37.797Z,99.99
2017-02-19T03:31:20.480Z,99.99
2017-02-19T03:32:00.972Z,99.99
2017-02-19T03:32:42.087Z,99.99
2017-02-19T03:33:25.000Z,99.99
2017-02-19T03:34:12.086Z,99.99
2017-02-19T03:34:53.485Z,99.99
2017-02-19T03:35:34.749Z,99.99
2017-02-19T03:36:16.098Z,99.99
2017-02-19T03:36:56.561Z,99.99
2017-02-19T03:37:38.589Z,99.99
2017-02-19T03:38:25.995Z,99.99
2017-02-19T03:39:08.265Z,99.99
2017-02-19T03:39:49.492Z,99.99
2017-02-19T03:40:29.960Z,99.99
2017-02-19T03:41:13.254Z,99.99
2017-02-19T03:41:53.699Z,99.99
2017-02-19T03:42:35.079Z,99.99
2017-02-19T03:43:15.541Z,99.99
2017-02-19T03:43:56.757Z,99.99
2017-02-19T03:44:37.231Z,99.99
2017-02-19T03:45:18.485Z,99.99
2017-02-19T03:46:00.576Z,99.99
2017-02-19T03:46:41.657Z,99.99
2017-02-19T03:47:23.484Z,99.99
2017-02-19T03:48:03.972Z,99.99
2017-02-19T03:48:45.996Z,99.99
2017-02-19T03:49:26.994Z,99.99
2017-02-19T03:50:09.985Z,99.99
2017-02-19T03:50:51.086Z,99.99
2017-02-19T03:52:38.978Z,99.99
2017-02-19T03:53:22.063Z,99.99
2017-02-19T03:54:03.070Z,99.99
2017-02-19T03:54:44.286Z,99.99
2017-02-19T03:55:25.419Z,99.99
2017-02-19T03:56:07.204Z,99.99
2017-02-19T03:56:48.500Z,99.99
2017-02-19T03:57:31.493Z,99.99
2017-02-19T03:58:12.812Z,99.99
2017-02-19T03:58:54.058Z,99.99
2017-02-19T03:59:37.792Z,99.99
2017-02-19T04:00:18.293Z,99.99
2017-02-19T04:00:58.782Z,99.99
2017-02-19T04:01:42.792Z,99.99
2017-02-19T04:02:25.805Z,99.99
2017-02-19T04:03:07.205Z,99.99
2017-02-19T04:03:51.381Z,99.99
2017-02-19T04:04:32.698Z,99.99
2017-02-19T04:05:15.690Z,99.99
2017-02-19T04:05:56.178Z,99.99
2017-02-19T04:06:37.214Z,99.99
2017-02-19T04:07:21.219Z,99.99
2017-02-19T04:08:02.301Z,99.99
2017-02-19T04:08:44.500Z,99.99
2017-02-19T04:09:25.809Z,99.99
2017-02-19T04:10:07.713Z,99.99
2017-02-19T04:10:52.971Z,99.99
2017-02-19T04:11:34.297Z,99.99
2017-02-19T04:12:15.466Z,99.99
2017-02-19T04:12:58.291Z,99.99
2017-02-19T04:13:39.396Z,99.99
2017-02-19T04:14:22.202Z,99.99
2017-02-19T04:15:04.295Z,99.99
2017-02-19T04:15:46.408Z,99.99
2017-02-19T04:16:27.789Z,99.99
2017-02-19T04:17:09.945Z,99.99
2017-02-19T04:17:50.449Z,99.99
2017-02-19T04:18:31.501Z,99.99
2017-02-19T04:19:12.797Z,99.99
2017-02-19T04:19:55.708Z,99.99
2017-02-19T04:20:45.701Z,99.99
2017-02-19T04:21:43.832Z,99.99
2017-02-19T04:22:24.943Z,99.99
2017-02-19T04:23:06.219Z,99.99
2017-02-19T04:23:48.289Z,99.99
2017-02-19T04:27:14.388Z,99.99
2017-02-19T04:27:54.958Z,99.99
2017-02-19T04:28:36.847Z,99.99
2017-02-19T04:29:19.731Z,99.99
2017-02-19T04:30:00.952Z,99.99
2017-02-19T04:30:42.828Z,99.99
2017-02-19T04:31:23.313Z,99.99
2017-02-19T04:33:41.671Z,99.99
2017-02-19T04:34:23.817Z,99.99
2017-02-19T04:35:04.298Z,99.99
2017-02-19T04:35:47.315Z,99.99
2017-02-19T04:36:29.333Z,99.99
2017-02-19T04:37:09.816Z,99.99
2017-02-19T04:37:51.118Z,99.99
2017-02-19T04:38:31.598Z,99.99
2017-02-19T04:39:12.656Z,99.99
2017-02-19T04:39:53.646Z,99.99
2017-02-19T04:40:35.124Z,99.99
2017-02-19T04:41:16.580Z,99.99
2017-02-19T04:41:58.801Z,99.99
2017-02-19T04:42:39.287Z,99.99
2017-02-19T04:43:19.788Z,99.99
2017-02-19T04:44:00.249Z,99.99
2017-02-19T04:44:40.753Z,99.99
2017-02-19T04:45:22.150Z,99.99
2017-02-19T04:46:03.312Z,99.99
2017-02-19T04:46:46.425Z,99.99
2017-02-19T04:47:26.865Z,99.99
2017-02-19T04:48:08.904Z,99.99
2017-02-19T04:48:49.983Z,99.99
2017-02-19T04:49:31.151Z,99.99
2017-02-19T04:50:13.835Z,99.99
2017-02-19T04:50:54.995Z,99.99
2017-02-19T04:51:35.974Z,99.99
2017-02-19T04:52:17.313Z,99.99
2017-02-19T04:52:58.323Z,99.99
2017-02-19T04:53:42.591Z,99.99
2017-02-19T04:54:23.913Z,99.99
2017-02-19T04:55:06.819Z,99.99
2017-02-19T04:55:49.087Z,99.99
2017-02-19T04:56:30.491Z,99.99
2017-02-19T04:57:11.484Z,99.99
2017-02-19T04:57:51.971Z,99.99
2017-02-19T04:58:32.474Z,99.99
2017-02-19T04:59:13.610Z,99.99
2017-02-19T04:59:55.514Z,99.99
2017-02-19T05:00:35.989Z,99.99
2017-02-19T05:01:16.990Z,99.99
2017-02-19T05:01:59.529Z,99.99
2017-02-19T05:02:40.018Z,99.99
2017-02-19T05:03:20.492Z,99.99
2017-02-19T05:04:02.671Z,99.99
2017-02-19T05:04:43.647Z,99.99
2017-02-19T05:05:26.000Z,99.99
2017-02-19T05:06:06.491Z,99.99
2017-02-19T05:06:47.018Z,99.99
2017-02-19T05:07:30.067Z,99.99
2017-02-19T05:08:11.306Z,99.99
2017-02-19T05:08:52.318Z,99.99
2017-02-19T05:09:38.310Z,99.99
2017-02-19T05:10:18.781Z,99.99
2017-02-19T05:10:59.284Z,99.99
2017-02-19T05:11:41.325Z,99.99
2017-02-19T05:12:21.814Z,99.99
2017-02-19T05:13:03.905Z,99.99
2017-02-19T05:13:45.105Z,99.99
2017-02-19T05:14:26.238Z,99.99
2017-02-19T05:15:06.684Z,99.99
2017-02-19T05:15:47.180Z,99.99
2017-02-19T05:16:27.665Z,99.99
2017-02-19T05:17:09.809Z,99.99
2017-02-19T05:17:50.298Z,99.99
2017-02-19T05:18:30.794Z,99.99
2017-02-19T05:19:11.284Z,99.99
2017-02-19T05:19:54.488Z,99.99
2017-02-19T05:20:35.497Z,99.99
2017-02-19T05:21:16.029Z,99.99
2017-02-19T05:21:56.511Z,99.99
2017-02-19T05:22:36.978Z,99.99
2017-02-19T05:23:17.456Z,99.99
2017-02-19T05:23:57.979Z,99.99
2017-02-19T05:24:39.088Z,99.99
2017-02-19T05:25:20.085Z,99.99
2017-02-19T05:26:01.492Z,99.99
2017-02-19T05:26:42.660Z,99.99
2017-02-19T05:27:23.181Z,99.99
2017-02-19T05:28:04.301Z,99.99
2017-02-19T05:28:44.810Z,99.99
2017-02-19T05:29:26.241Z,99.99
2017-02-19T05:30:06.651Z,99.99
2017-02-19T05:30:47.112Z,99.99
2017-02-19T05:31:28.626Z,99.99
2017-02-19T05:32:09.672Z,99.99
2017-02-19T05:32:50.177Z,99.99
2017-02-19T05:33:32.985Z,99.99
2017-02-19T05:34:13.541Z,99.99
2017-02-19T05:34:54.085Z,99.99
2017-02-19T05:35:34.567Z,99.99
2017-02-19T05:36:15.037Z,99.99
2017-02-19T05:36:55.513Z,99.99
2017-02-19T05:37:35.993Z,99.99
2017-02-19T05:38:17.052Z,99.99
2017-02-19T05:38:58.160Z,99.99
2017-02-19T05:39:38.648Z,99.99
2017-02-19T05:40:19.139Z,99.99
2017-02-19T05:40:59.658Z,99.99
2017-02-19T05:41:40.115Z,99.99
2017-02-19T05:42:20.618Z,99.99
2017-02-19T05:43:01.815Z,99.99
2017-02-19T05:43:42.312Z,99.99
2017-02-19T05:44:22.770Z,99.99
2017-02-19T05:45:03.249Z,99.99
2017-02-19T05:45:43.738Z,99.99
2017-02-19T05:46:24.239Z,99.99
2017-02-19T05:47:05.493Z,99.99
2017-02-19T05:47:45.958Z,99.99
2017-02-19T05:48:26.495Z,99.99
2017-02-19T05:49:07.023Z,99.99
2017-02-19T05:49:49.120Z,99.99
2017-02-19T05:50:31.565Z,99.99
2017-02-19T05:51:12.085Z,99.99
2017-02-19T05:51:53.321Z,99.99
2017-02-19T05:52:33.804Z,99.99
2017-02-19T05:53:14.290Z,99.99
2017-02-19T05:53:54.774Z,99.99
2017-02-19T05:54:36.146Z,99.99
2017-02-19T05:55:18.410Z,99.99
2017-02-19T05:55:58.913Z,99.99
2017-02-19T05:56:40.022Z,99.99
2017-02-19T05:57:20.453Z,99.99
2017-02-19T05:58:00.942Z,99.99
2017-02-19T05:58:41.448Z,99.99
2017-02-19T05:59:23.326Z,99.99
2017-02-19T06:00:03.795Z,99.99
2017-02-19T06:00:44.301Z,99.99
2017-02-19T06:01:25.573Z,99.99
2017-02-19T06:02:09.411Z,99.99
2017-02-19T06:02:50.810Z,99.99
2017-02-19T06:03:32.081Z,99.99
2017-02-19T06:04:13.326Z,99.99
2017-02-19T06:04:54.678Z,99.99
2017-02-19T06:05:35.157Z,99.99
2017-02-19T06:06:16.600Z,99.99
2017-02-19T06:06:57.912Z,99.99
2017-02-19T06:07:38.464Z,99.99
2017-02-19T06:08:18.990Z,99.99
2017-02-19T06:09:02.324Z,99.99
2017-02-19T06:09:43.809Z,99.99
2017-02-19T06:10:25.829Z,99.99
2017-02-19T06:11:06.338Z,99.99
2017-02-19T06:11:46.774Z,99.99
2017-02-19T06:12:27.917Z,99.99
2017-02-19T06:13:09.987Z,99.99
2017-02-19T06:13:50.479Z,99.99
2017-02-19T06:14:30.968Z,99.99
2017-02-19T06:15:12.823Z,99.99
2017-02-19T06:15:53.300Z,99.99
2017-02-19T06:16:34.692Z,99.99
2017-02-19T06:17:15.165Z,99.99
2017-02-19T06:17:55.676Z,99.99
2017-02-19T06:18:37.104Z,99.99
2017-02-19T06:19:18.081Z,99.99
2017-02-19T06:19:58.615Z,99.99
2017-02-19T06:20:39.108Z,99.99
2017-02-19T06:21:19.618Z,99.99
2017-02-19T06:22:00.114Z,99.99
2017-02-19T06:22:40.586Z,99.99
2017-02-19T06:23:21.056Z,99.99
2017-02-19T06:24:01.542Z,99.99
2017-02-19T06:24:42.040Z,99.99
2017-02-19T06:25:22.532Z,99.99
2017-02-19T06:26:03.011Z,99.99
2017-02-19T06:26:43.517Z,99.99
2017-02-19T06:27:23.973Z,99.99
2017-02-19T06:28:04.462Z,99.99
2017-02-19T06:28:44.990Z,99.99
2017-02-19T06:29:25.514Z,99.99
2017-02-19T06:30:06.010Z,99.99
2017-02-19T06:30:46.525Z,99.99
2017-02-19T06:31:27.006Z,99.99
2017-02-19T06:32:07.476Z,99.99
2017-02-19T06:32:47.981Z,99.99
2017-02-19T06:33:28.447Z,99.99
2017-02-19T06:34:08.924Z,99.99
2017-02-19T06:34:49.412Z,99.99
2017-02-19T06:35:29.884Z,99.99
2017-02-19T06:36:10.373Z,99.99
2017-02-19T06:36:50.819Z,99.99
2017-02-19T06:37:31.309Z,99.99
2017-02-19T06:38:11.788Z,99.99
2017-02-19T06:38:52.286Z,99.99
2017-02-19T06:39:32.793Z,99.99
2017-02-19T06:40:13.251Z,99.99
2017-02-19T06:40:53.755Z,99.99
2017-02-19T06:41:34.213Z,99.99
2017-02-19T06:42:14.707Z,99.99
2017-02-19T06:42:55.191Z,99.99
2017-02-19T06:43:35.671Z,99.99
2017-02-19T06:44:16.148Z,99.99
2017-02-19T06:44:56.657Z,99.99
2017-02-19T06:45:37.115Z,99.99
2017-02-19T06:46:17.584Z,99.99
2017-02-19T06:46:58.081Z,99.99
2017-02-19T06:47:38.574Z,99.99
2017-02-19T06:48:19.039Z,99.99
2017-02-19T06:48:59.522Z,99.99
2017-02-19T06:49:39.983Z,99.99
2017-02-19T06:50:20.473Z,99.99
2017-02-19T06:51:00.949Z,99.99
2017-02-19T06:51:41.452Z,99.99
2017-02-19T06:52:21.934Z,99.99
2017-02-19T06:53:02.412Z,99.99
2017-02-19T06:53:42.895Z,99.99
2017-02-19T06:54:23.349Z,99.99
2017-02-19T06:55:03.837Z,99.99
2017-02-19T06:55:44.346Z,99.99
2017-02-19T06:56:24.917Z,99.99
2017-02-19T06:57:05.384Z,99.99
2017-02-19T06:57:45.845Z,99.99
2017-02-19T06:58:26.367Z,99.99
2017-02-19T06:59:06.844Z,99.99
2017-02-19T06:59:47.319Z,99.99
2017-02-19T07:00:28.610Z,99.99
2017-02-19T07:01:09.097Z,99.99
2017-02-19T07:01:49.585Z,99.99
2017-02-19T07:02:30.038Z,99.99
2017-02-19T07:03:11.492Z,99.99
2017-02-19T07:03:51.971Z,99.99
2017-02-19T07:04:32.414Z,99.99
2017-02-19T07:05:12.890Z,99.99
2017-02-19T07:05:53.369Z,99.99
2017-02-19T07:06:33.890Z,99.99
2017-02-19T07:07:14.330Z,99.99
2017-02-19T07:07:54.812Z,99.99
2017-02-19T07:08:35.290Z,99.99
2017-02-19T07:09:15.777Z,99.99
2017-02-19T07:09:56.250Z,99.99
2017-02-19T07:10:36.726Z,99.99
2017-02-19T07:11:17.226Z,99.99
2017-02-19T07:11:57.708Z,99.99
2017-02-19T07:12:38.185Z,99.99
2017-02-19T07:13:18.669Z,99.99
2017-02-19T07:13:59.182Z,99.99
2017-02-19T07:14:39.732Z,99.99
2017-02-19T07:15:20.224Z,99.99
2017-02-19T07:16:00.694Z,99.99
2017-02-19T07:16:41.186Z,99.99
2017-02-19T07:17:21.723Z,99.99
2017-02-19T07:18:02.192Z,99.99
2017-02-19T07:18:42.661Z,99.99
2017-02-19T07:19:23.132Z,99.99
2017-02-19T07:20:03.617Z,99.99
2017-02-19T07:20:44.167Z,99.99
2017-02-19T07:21:24.635Z,99.99
2017-02-19T07:22:05.113Z,99.99
2017-02-19T07:22:46.171Z,99.99
2017-02-19T07:23:26.632Z,99.99
2017-02-19T07:24:07.115Z,68.06
2017-02-19T07:24:47.606Z,69.1
2017-02-19T07:25:28.072Z,69.29
2017-02-19T07:26:08.574Z,68.91
2017-02-19T07:26:49.041Z,69.29
2017-02-19T07:27:29.503Z,69.2
2017-02-19T07:28:09.985Z,68.35
2017-02-19T07:28:50.439Z,68.63
2017-02-19T07:29:30.944Z,68.06
2017-02-19T07:30:11.473Z,67.68
2017-02-19T07:30:51.948Z,67.87
2017-02-19T07:31:32.417Z,67.68
2017-02-19T07:32:12.896Z,67.58
2017-02-19T07:32:53.368Z,67.77
2017-02-19T07:33:33.855Z,67.21
2017-02-19T07:34:15.093Z,67.02
2017-02-19T07:34:56.312Z,66.74
2017-02-19T07:35:36.792Z,66.74
2017-02-19T07:36:18.015Z,66.83
2017-02-19T07:36:58.482Z,66.45
2017-02-19T07:37:39.815Z,66.83
2017-02-19T07:38:20.289Z,66.16
2017-02-19T07:39:01.309Z,66.16
2017-02-19T07:39:41.854Z,66.1
2017-02-19T07:40:23.839Z,66.07
2017-02-19T07:41:06.901Z,65.97
2017-02-19T07:41:47.376Z,65.78
2017-02-19T07:42:29.393Z,65.88
2017-02-19T07:43:10.730Z,65.69
2017-02-19T07:43:52.040Z,66.45
2017-02-19T07:44:32.503Z,66.54
2017-02-19T07:45:14.820Z,67.21
2017-02-19T07:45:57.804Z,66.35
2017-02-19T07:46:39.947Z,66.54
2017-02-19T07:47:21.813Z,67.21
2017-02-19T07:48:02.309Z,67.3
2017-02-19T07:48:42.765Z,67.02
2017-02-19T07:49:24.824Z,67.11
2017-02-19T07:50:05.340Z,67.96
2017-02-19T07:50:47.487Z,68.54
2017-02-19T07:51:29.643Z,69.86
2017-02-19T07:52:11.901Z,71.28
2017-02-19T07:52:54.305Z,73.65
2017-02-19T07:53:35.314Z,74.88
2017-02-19T07:54:16.691Z,76.87
2017-02-19T07:54:57.646Z,79.25
2017-02-19T07:55:38.129Z,82.09
2017-02-19T07:56:20.312Z,83.98
2017-02-19T07:57:03.309Z,87.3
2017-02-19T07:57:43.932Z,89.86
2017-02-19T07:58:24.457Z,92.33
2017-02-19T07:59:05.902Z,94.7
2017-02-19T07:59:48.088Z,96.31
2017-02-19T08:00:34.020Z,97.16
2017-02-19T08:01:16.980Z,98.25
2017-02-19T08:01:59.806Z,98.02
2017-02-19T08:02:41.310Z,98.82
2017-02-19T08:03:22.672Z,98.96
2017-02-19T08:04:04.037Z,98.96
2017-02-19T08:04:46.331Z,99.2
2017-02-19T08:05:29.316Z,99.25
2017-02-19T08:06:12.451Z,99.3
2017-02-19T08:06:55.365Z,99.34
2017-02-19T08:07:38.319Z,99.25
2017-02-19T08:08:19.324Z,99.99
2017-02-19T08:09:02.398Z,99.99
2017-02-19T08:09:45.834Z,99.63
2017-02-19T08:10:27.937Z,99.99
2017-02-19T08:11:09.201Z,99.99
2017-02-19T08:11:50.310Z,99.99
2017-02-19T08:12:31.560Z,99.99
2017-02-19T08:13:12.045Z,99.96
2017-02-19T08:13:53.446Z,99.72
2017-02-19T08:14:33.942Z,99.99
2017-02-19T08:15:14.471Z,99.99
2017-02-19T08:15:54.907Z,99.99
2017-02-19T08:16:35.426Z,99.99
2017-02-19T08:17:15.890Z,99.99
2017-02-19T08:17:57.331Z,99.99
2017-02-19T08:18:38.338Z,99.99
2017-02-19T08:19:19.610Z,99.99
2017-02-19T08:20:00.813Z,99.99
2017-02-19T08:20:41.393Z,99.99
2017-02-19T08:21:21.878Z,99.99
2017-02-19T08:22:02.366Z,99.99
2017-02-19T08:22:42.822Z,99.99
2017-02-19T08:23:23.931Z,99.99
2017-02-19T08:24:04.895Z,99.99
2017-02-19T08:24:46.983Z,99.99
2017-02-19T08:25:28.910Z,99.99
2017-02-19T08:26:12.007Z,99.99
2017-02-19T08:26:54.087Z,99.99
2017-02-19T08:27:35.436Z,99.99
2017-02-19T08:28:18.480Z,99.99
2017-02-19T08:28:58.989Z,99.99
2017-02-19T08:29:39.511Z,99.99
2017-02-19T08:30:21.558Z,99.99
2017-02-19T08:31:14.592Z,99.99
2017-02-19T08:31:55.082Z,99.99
2017-02-19T08:32:38.354Z,99.99
2017-02-19T08:33:22.423Z,99.99
2017-02-19T08:34:02.901Z,99.99
2017-02-19T08:34:48.919Z,99.99
2017-02-19T08:35:31.819Z,99.99
2017-02-19T08:36:19.810Z,99.99
2017-02-19T08:37:04.836Z,99.99
2017-02-19T08:37:53.812Z,99.99
2017-02-19T08:38:46.871Z,99.99
2017-02-19T08:39:27.318Z,99.99
2017-02-19T08:40:07.761Z,99.99
2017-02-19T08:40:48.239Z,99.99
2017-02-19T08:41:28.731Z,99.99
2017-02-19T08:42:09.204Z,99.99
2017-02-19T08:42:49.719Z,99.99
2017-02-19T08:43:31.068Z,99.99
2017-02-19T08:44:16.327Z,99.99
2017-02-19T08:44:56.835Z,99.99
2017-02-19T08:45:38.177Z,99.99
2017-02-19T08:46:20.533Z,99.99
2017-02-19T08:47:00.986Z,99.99
2017-02-19T08:47:50.824Z,99.99
2017-02-19T08:48:32.841Z,99.99
2017-02-19T08:49:14.226Z,99.99
2017-02-19T08:49:56.319Z,99.99
2017-02-19T08:50:36.853Z,99.99
2017-02-19T08:51:19.009Z,99.99
2017-02-19T08:51:59.482Z,99.99
2017-02-19T08:52:39.953Z,99.99
2017-02-19T08:53:20.422Z,99.99
2017-02-19T08:54:04.026Z,99.99
2017-02-19T08:54:45.217Z,99.99
2017-02-19T08:55:25.665Z,99.99
2017-02-19T08:56:06.139Z,99.99
2017-02-19T08:56:46.608Z,99.99
2017-02-19T08:57:27.108Z,99.99
2017-02-19T08:58:07.567Z,99.99
2017-02-19T08:58:48.897Z,99.99
2017-02-19T08:59:29.397Z,99.99
2017-02-19T09:00:09.867Z,99.99
2017-02-19T09:00:50.360Z,99.99
2017-02-19T09:01:30.824Z,99.99
2017-02-19T09:02:11.312Z,99.99
2017-02-19T09:02:51.796Z,99.99
2017-02-19T09:03:32.263Z,99.99
2017-02-19T09:04:12.769Z,99.99
2017-02-19T09:04:53.240Z,99.99